sensor_id;sensor_type;location;lat;lon;timestamp;pressure;altitude;pressure_sealevel;temperature;humidity
56831;BME280;42713;42.676;23.352;2023-05-31T00:01:40;94815.53;;;19.84;60.91
56831;BME280;42713;42.676;23.352;2023-05-31T00:04:06;94816.44;;;19.79;60.79
56831;BME280;42713;42.676;23.352;2023-05-31T00:06:33;94815.94;;;19.77;60.96
56831;BME280;42713;42.676;23.352;2023-05-31T00:08:58;94821.88;;;19.74;61.05
56831;BME280;42713;42.676;23.352;2023-05-31T00:11:24;94826.97;;;19.70;61.21
56831;BME280;42713;42.676;23.352;2023-05-31T00:13:52;94819.69;;;19.62;61.57
56831;BME280;42713;42.676;23.352;2023-05-31T00:16:17;94818.53;;;19.68;61.33
56831;BME280;42713;42.676;23.352;2023-05-31T00:18:43;94818.81;;;19.67;61.37
56831;BME280;42713;42.676;23.352;2023-05-31T00:21:09;94826.28;;;19.65;61.55
56831;BME280;42713;42.676;23.352;2023-05-31T00:23:34;94823.25;;;19.57;61.77
56831;BME280;42713;42.676;23.352;2023-05-31T00:26:00;94819.91;;;19.52;62.21
56831;BME280;42713;42.676;23.352;2023-05-31T00:28:26;94814.78;;;19.55;62.12
56831;BME280;42713;42.676;23.352;2023-05-31T00:30:53;94820.50;;;19.49;62.21
56831;BME280;42713;42.676;23.352;2023-05-31T00:33:18;94816.56;;;19.46;62.01
56831;BME280;42713;42.676;23.352;2023-05-31T00:35:44;94816.38;;;19.42;62.27
56831;BME280;42713;42.676;23.352;2023-05-31T00:38:09;94825.72;;;19.40;62.48
56831;BME280;42713;42.676;23.352;2023-05-31T00:40:35;94827.38;;;19.36;62.57
56831;BME280;42713;42.676;23.352;2023-05-31T00:43:00;94824.25;;;19.34;62.78
56831;BME280;42713;42.676;23.352;2023-05-31T00:45:26;94825.59;;;19.31;62.73
56831;BME280;42713;42.676;23.352;2023-05-31T00:47:54;94826.78;;;19.25;63.09
56831;BME280;42713;42.676;23.352;2023-05-31T00:50:20;94828.69;;;19.24;63.00
56831;BME280;42713;42.676;23.352;2023-05-31T00:52:46;94828.97;;;19.23;63.16
56831;BME280;42713;42.676;23.352;2023-05-31T00:55:13;94827.78;;;19.15;63.36
56831;BME280;42713;42.676;23.352;2023-05-31T00:57:40;94823.06;;;19.12;63.65
56831;BME280;42713;42.676;23.352;2023-05-31T01:00:06;94822.25;;;19.11;63.62
56831;BME280;42713;42.676;23.352;2023-05-31T01:02:34;94829.94;;;19.13;64.21
56831;BME280;42713;42.676;23.352;2023-05-31T01:05:00;94827.66;;;19.06;64.42
56831;BME280;42713;42.676;23.352;2023-05-31T01:07:26;94826.41;;;19.04;64.32
56831;BME280;42713;42.676;23.352;2023-05-31T01:09:53;94830.41;;;19.01;64.07
56831;BME280;42713;42.676;23.352;2023-05-31T01:12:41;94832.78;;;19.03;64.30
56831;BME280;42713;42.676;23.352;2023-05-31T01:15:13;94825.91;;;19.02;64.30
56831;BME280;42713;42.676;23.352;2023-05-31T01:20:38;94838.47;;;18.96;64.68
56831;BME280;42713;42.676;23.352;2023-05-31T01:23:27;94833.47;;;18.94;64.58
56831;BME280;42713;42.676;23.352;2023-05-31T01:28:45;94838.47;;;18.96;65.05
56831;BME280;42713;42.676;23.352;2023-05-31T01:31:14;94836.31;;;18.98;64.72
56831;BME280;42713;42.676;23.352;2023-05-31T01:33:40;94834.00;;;18.91;65.02
56831;BME280;42713;42.676;23.352;2023-05-31T01:36:06;94838.81;;;18.89;65.21
56831;BME280;42713;42.676;23.352;2023-05-31T01:38:32;94830.44;;;18.82;65.50
56831;BME280;42713;42.676;23.352;2023-05-31T01:40:58;94833.09;;;18.82;65.58
56831;BME280;42713;42.676;23.352;2023-05-31T01:43:25;94833.69;;;18.79;65.29
56831;BME280;42713;42.676;23.352;2023-05-31T01:45:53;94833.19;;;18.77;64.54
56831;BME280;42713;42.676;23.352;2023-05-31T01:48:19;94828.09;;;18.80;64.28
56831;BME280;42713;42.676;23.352;2023-05-31T01:50:45;94832.59;;;18.80;64.48
56831;BME280;42713;42.676;23.352;2023-05-31T01:53:11;94835.06;;;18.76;64.98
56831;BME280;42713;42.676;23.352;2023-05-31T01:55:37;94843.22;;;18.80;65.27
56831;BME280;42713;42.676;23.352;2023-05-31T01:58:05;94836.63;;;18.77;65.66
56831;BME280;42713;42.676;23.352;2023-05-31T02:00:31;94838.47;;;18.77;65.22
56831;BME280;42713;42.676;23.352;2023-05-31T02:02:57;94836.94;;;18.76;65.49
56831;BME280;42713;42.676;23.352;2023-05-31T02:05:24;94830.63;;;18.72;65.60
56831;BME280;42713;42.676;23.352;2023-05-31T02:07:49;94831.78;;;18.65;65.61
56831;BME280;42713;42.676;23.352;2023-05-31T02:10:15;94838.66;;;18.66;65.84
56831;BME280;42713;42.676;23.352;2023-05-31T02:12:41;94850.63;;;18.64;65.88
56831;BME280;42713;42.676;23.352;2023-05-31T02:15:07;94850.13;;;18.62;65.91
56831;BME280;42713;42.676;23.352;2023-05-31T02:17:43;94851.50;;;18.59;65.57
56831;BME280;42713;42.676;23.352;2023-05-31T02:20:15;94846.69;;;18.61;65.33
56831;BME280;42713;42.676;23.352;2023-05-31T02:22:41;94852.56;;;18.58;65.47
56831;BME280;42713;42.676;23.352;2023-05-31T02:25:11;94842.38;;;18.51;66.11
56831;BME280;42713;42.676;23.352;2023-05-31T02:27:38;94847.66;;;18.51;65.94
56831;BME280;42713;42.676;23.352;2023-05-31T02:30:09;94843.66;;;18.54;65.98
56831;BME280;42713;42.676;23.352;2023-05-31T02:32:35;94839.63;;;18.57;65.66
56831;BME280;42713;42.676;23.352;2023-05-31T02:35:07;94835.69;;;18.54;65.97
56831;BME280;42713;42.676;23.352;2023-05-31T02:37:34;94847.06;;;18.55;66.27
56831;BME280;42713;42.676;23.352;2023-05-31T02:40:01;94842.38;;;18.51;66.38
56831;BME280;42713;42.676;23.352;2023-05-31T02:42:26;94845.28;;;18.50;66.64
56831;BME280;42713;42.676;23.352;2023-05-31T02:44:52;94843.44;;;18.50;66.63
56831;BME280;42713;42.676;23.352;2023-05-31T02:47:17;94840.06;;;18.45;67.10
56831;BME280;42713;42.676;23.352;2023-05-31T02:49:42;94842.22;;;18.43;67.42
56831;BME280;42713;42.676;23.352;2023-05-31T02:52:08;94836.91;;;18.43;67.30
56831;BME280;42713;42.676;23.352;2023-05-31T02:54:33;94838.75;;;18.42;67.06
56831;BME280;42713;42.676;23.352;2023-05-31T02:56:59;94843.38;;;18.37;67.22
56831;BME280;42713;42.676;23.352;2023-05-31T02:59:25;94844.47;;;18.35;67.24
56831;BME280;42713;42.676;23.352;2023-05-31T03:01:51;94854.00;;;18.37;67.59
56831;BME280;42713;42.676;23.352;2023-05-31T03:04:17;94843.09;;;18.38;67.52
56831;BME280;42713;42.676;23.352;2023-05-31T03:06:43;94854.00;;;18.37;67.54
56831;BME280;42713;42.676;23.352;2023-05-31T03:09:08;94853.47;;;18.34;67.68
56831;BME280;42713;42.676;23.352;2023-05-31T03:11:34;94852.47;;;18.30;67.76
56831;BME280;42713;42.676;23.352;2023-05-31T03:14:00;94844.59;;;18.25;68.05
56831;BME280;42713;42.676;23.352;2023-05-31T03:16:25;94852.34;;;18.22;68.08
56831;BME280;42713;42.676;23.352;2023-05-31T03:18:51;94858.34;;;18.27;68.25
56831;BME280;42713;42.676;23.352;2023-05-31T03:21:16;94851.50;;;18.26;68.14
56831;BME280;42713;42.676;23.352;2023-05-31T03:23:42;94852.06;;;18.23;68.26
56831;BME280;42713;42.676;23.352;2023-05-31T03:26:08;94855.47;;;18.24;68.31
56831;BME280;42713;42.676;23.352;2023-05-31T03:28:33;94850.81;;;18.15;68.63
56831;BME280;42713;42.676;23.352;2023-05-31T03:30:58;94854.53;;;18.14;68.68
56831;BME280;42713;42.676;23.352;2023-05-31T03:33:24;94855.06;;;18.16;68.83
56831;BME280;42713;42.676;23.352;2023-05-31T03:35:49;94862.50;;;18.14;68.76
56831;BME280;42713;42.676;23.352;2023-05-31T03:38:15;94860.88;;;18.18;68.61
56831;BME280;42713;42.676;23.352;2023-05-31T03:40:40;94858.56;;;18.12;68.54
56831;BME280;42713;42.676;23.352;2023-05-31T03:43:06;94861.44;;;18.15;68.95
56831;BME280;42713;42.676;23.352;2023-05-31T03:45:31;94867.53;;;18.16;69.22
56831;BME280;42713;42.676;23.352;2023-05-31T03:47:57;94860.16;;;18.13;69.39
56831;BME280;42713;42.676;23.352;2023-05-31T03:50:22;94869.69;;;18.14;69.76
56831;BME280;42713;42.676;23.352;2023-05-31T03:52:48;94877.56;;;18.19;69.58
56831;BME280;42713;42.676;23.352;2023-05-31T03:55:13;94875.50;;;18.16;69.48
56831;BME280;42713;42.676;23.352;2023-05-31T03:57:39;94869.91;;;18.17;69.20
56831;BME280;42713;42.676;23.352;2023-05-31T04:00:05;94881.28;;;18.18;69.13
56831;BME280;42713;42.676;23.352;2023-05-31T04:02:31;94877.06;;;18.17;69.06
56831;BME280;42713;42.676;23.352;2023-05-31T04:04:57;94867.25;;;18.17;68.92
56831;BME280;42713;42.676;23.352;2023-05-31T04:07:22;94875.50;;;18.16;68.54
56831;BME280;42713;42.676;23.352;2023-05-31T04:09:48;94869.03;;;18.22;68.58
56831;BME280;42713;42.676;23.352;2023-05-31T04:12:13;94879.63;;;18.22;68.66
56831;BME280;42713;42.676;23.352;2023-05-31T04:14:39;94880.66;;;18.26;69.19
56831;BME280;42713;42.676;23.352;2023-05-31T04:17:04;94878.78;;;18.27;69.27
56831;BME280;42713;42.676;23.352;2023-05-31T04:19:30;94880.91;;;18.25;69.01
56831;BME280;42713;42.676;23.352;2023-05-31T04:21:56;94882.72;;;18.29;68.54
56831;BME280;42713;42.676;23.352;2023-05-31T04:24:21;94887.75;;;18.31;68.37
56831;BME280;42713;42.676;23.352;2023-05-31T04:26:47;94888.53;;;18.31;68.24
56831;BME280;42713;42.676;23.352;2023-05-31T04:29:13;94883.50;;;18.30;67.84
56831;BME280;42713;42.676;23.352;2023-05-31T04:31:39;94887.97;;;18.34;67.42
56831;BME280;42713;42.676;23.352;2023-05-31T04:34:04;94888.16;;;18.38;67.37
56831;BME280;42713;42.676;23.352;2023-05-31T04:36:30;94896.53;;;18.45;67.33
56831;BME280;42713;42.676;23.352;2023-05-31T04:39:01;94899.50;;;18.44;67.00
56831;BME280;42713;42.676;23.352;2023-05-31T04:41:26;94902.66;;;18.46;67.06
56831;BME280;42713;42.676;23.352;2023-05-31T04:43:55;94904.19;;;18.47;67.30
56831;BME280;42713;42.676;23.352;2023-05-31T04:46:22;94911.03;;;18.53;66.93
56831;BME280;42713;42.676;23.352;2023-05-31T04:48:48;94910.47;;;18.56;66.86
56831;BME280;42713;42.676;23.352;2023-05-31T04:51:18;94909.88;;;18.59;66.75
56831;BME280;42713;42.676;23.352;2023-05-31T04:53:44;94904.00;;;18.62;66.93
56831;BME280;42713;42.676;23.352;2023-05-31T04:56:11;94911.38;;;18.65;66.83
56831;BME280;42713;42.676;23.352;2023-05-31T04:58:38;94908.44;;;18.67;66.97
56831;BME280;42713;42.676;23.352;2023-05-31T05:01:04;94902.81;;;18.69;67.30
56831;BME280;42713;42.676;23.352;2023-05-31T05:03:29;94909.34;;;18.76;66.60
56831;BME280;42713;42.676;23.352;2023-05-31T05:05:56;94917.00;;;18.78;66.35
56831;BME280;42713;42.676;23.352;2023-05-31T05:08:22;94921.75;;;18.81;66.68
56831;BME280;42713;42.676;23.352;2023-05-31T05:10:48;94924.81;;;18.88;66.39
56831;BME280;42713;42.676;23.352;2023-05-31T05:13:14;94922.66;;;18.90;66.60
56831;BME280;42713;42.676;23.352;2023-05-31T05:15:41;94921.03;;;18.94;67.23
56831;BME280;42713;42.676;23.352;2023-05-31T05:18:07;94923.91;;;18.98;67.54
56831;BME280;42713;42.676;23.352;2023-05-31T05:20:32;94923.09;;;18.97;67.11
56831;BME280;42713;42.676;23.352;2023-05-31T05:22:58;94931.00;;;19.03;66.68
56831;BME280;42713;42.676;23.352;2023-05-31T05:25:29;94937.78;;;19.09;66.25
56831;BME280;42713;42.676;23.352;2023-05-31T05:27:55;94940.06;;;19.16;66.09
56831;BME280;42713;42.676;23.352;2023-05-31T05:30:20;94936.84;;;19.19;65.75
56831;BME280;42713;42.676;23.352;2023-05-31T05:32:46;94943.44;;;19.21;65.03
56831;BME280;42713;42.676;23.352;2023-05-31T05:35:11;94943.63;;;19.25;64.90
56831;BME280;42713;42.676;23.352;2023-05-31T05:37:37;94933.53;;;19.27;64.46
56831;BME280;42713;42.676;23.352;2023-05-31T05:40:03;94943.84;;;19.28;64.61
56831;BME280;42713;42.676;23.352;2023-05-31T05:42:30;94947.19;;;19.34;64.89
56831;BME280;42713;42.676;23.352;2023-05-31T05:44:57;94952.72;;;19.38;64.30
56831;BME280;42713;42.676;23.352;2023-05-31T05:47:23;94950.56;;;19.40;64.41
56831;BME280;42713;42.676;23.352;2023-05-31T05:49:48;94947.31;;;19.43;64.26
56831;BME280;42713;42.676;23.352;2023-05-31T05:52:13;94945.63;;;19.47;64.19
56831;BME280;42713;42.676;23.352;2023-05-31T05:54:39;94943.19;;;19.51;64.11
56831;BME280;42713;42.676;23.352;2023-05-31T05:57:05;94946.53;;;19.56;63.58
56831;BME280;42713;42.676;23.352;2023-05-31T05:59:31;94955.50;;;19.60;64.22
56831;BME280;42713;42.676;23.352;2023-05-31T06:01:56;94947.72;;;19.64;64.47
56831;BME280;42713;42.676;23.352;2023-05-31T06:04:22;94948.44;;;19.70;64.58
56831;BME280;42713;42.676;23.352;2023-05-31T06:06:47;94952.28;;;19.78;64.83
56831;BME280;42713;42.676;23.352;2023-05-31T06:09:13;94951.66;;;19.81;64.20
56831;BME280;42713;42.676;23.352;2023-05-31T06:11:38;94948.66;;;19.87;63.58
56831;BME280;42713;42.676;23.352;2023-05-31T06:14:04;94954.16;;;19.91;63.51
56831;BME280;42713;42.676;23.352;2023-05-31T06:16:29;94950.63;;;19.96;63.23
56831;BME280;42713;42.676;23.352;2023-05-31T06:18:55;94950.81;;;19.99;63.25
56831;BME280;42713;42.676;23.352;2023-05-31T06:21:20;94947.25;;;20.04;63.87
56831;BME280;42713;42.676;23.352;2023-05-31T06:23:45;94951.22;;;20.06;64.09
56831;BME280;42713;42.676;23.352;2023-05-31T06:26:11;94951.09;;;20.12;64.29
56831;BME280;42713;42.676;23.352;2023-05-31T06:28:36;94947.66;;;20.11;64.46
56831;BME280;42713;42.676;23.352;2023-05-31T06:31:02;94954.13;;;20.19;64.03
56831;BME280;42713;42.676;23.352;2023-05-31T06:33:27;94955.44;;;20.21;64.06
56831;BME280;42713;42.676;23.352;2023-05-31T06:35:53;94956.91;;;20.28;63.58
56831;BME280;42713;42.676;23.352;2023-05-31T06:38:18;94957.88;;;20.32;63.64
56831;BME280;42713;42.676;23.352;2023-05-31T06:40:46;94953.53;;;20.36;63.69
56831;BME280;42713;42.676;23.352;2023-05-31T06:43:12;94948.41;;;20.40;63.43
56831;BME280;42713;42.676;23.352;2023-05-31T06:45:38;94950.16;;;20.44;62.95
56831;BME280;42713;42.676;23.352;2023-05-31T06:48:07;94954.91;;;20.47;62.55
56831;BME280;42713;42.676;23.352;2023-05-31T06:50:33;94954.00;;;20.52;62.78
56831;BME280;42713;42.676;23.352;2023-05-31T06:52:59;94955.75;;;20.57;62.75
56831;BME280;42713;42.676;23.352;2023-05-31T06:55:25;94953.00;;;20.62;62.63
56831;BME280;42713;42.676;23.352;2023-05-31T06:57:51;94953.38;;;20.69;62.09
56831;BME280;42713;42.676;23.352;2023-05-31T07:00:17;94956.97;;;20.73;61.72
56831;BME280;42713;42.676;23.352;2023-05-31T07:02:43;94953.25;;;20.74;61.77
56831;BME280;42713;42.676;23.352;2023-05-31T07:05:08;94953.34;;;20.83;61.40
56831;BME280;42713;42.676;23.352;2023-05-31T07:07:40;94945.66;;;20.81;61.38
56831;BME280;42713;42.676;23.352;2023-05-31T07:10:08;94946.53;;;20.91;61.56
56831;BME280;42713;42.676;23.352;2023-05-31T07:12:34;94952.50;;;20.96;61.68
56831;BME280;42713;42.676;23.352;2023-05-31T07:15:00;94956.63;;;21.03;61.45
56831;BME280;42713;42.676;23.352;2023-05-31T07:17:25;94947.22;;;21.05;60.87
56831;BME280;42713;42.676;23.352;2023-05-31T07:19:51;94960.13;;;21.12;60.75
56831;BME280;42713;42.676;23.352;2023-05-31T07:22:17;94960.19;;;21.21;60.99
56831;BME280;42713;42.676;23.352;2023-05-31T07:24:43;94965.38;;;21.26;60.80
56831;BME280;42713;42.676;23.352;2023-05-31T07:27:09;94955.69;;;21.30;60.58
56831;BME280;42713;42.676;23.352;2023-05-31T07:29:36;94951.81;;;21.36;60.10
56831;BME280;42713;42.676;23.352;2023-05-31T07:32:01;94950.28;;;21.44;59.76
56831;BME280;42713;42.676;23.352;2023-05-31T07:34:27;94956.28;;;21.50;59.51
56831;BME280;42713;42.676;23.352;2023-05-31T07:36:52;94956.63;;;21.57;59.06
56831;BME280;42713;42.676;23.352;2023-05-31T07:39:21;94953.84;;;21.62;58.52
56831;BME280;42713;42.676;23.352;2023-05-31T07:41:46;94951.81;;;21.68;58.37
56831;BME280;42713;42.676;23.352;2023-05-31T07:44:12;94945.75;;;21.76;58.36
56831;BME280;42713;42.676;23.352;2023-05-31T07:46:37;94946.88;;;21.84;56.99
56831;BME280;42713;42.676;23.352;2023-05-31T07:49:03;94952.09;;;21.89;56.59
56831;BME280;42713;42.676;23.352;2023-05-31T07:51:29;94949.59;;;21.92;56.50
56831;BME280;42713;42.676;23.352;2023-05-31T07:53:55;94946.00;;;21.97;57.53
56831;BME280;42713;42.676;23.352;2023-05-31T07:56:21;94944.63;;;22.08;58.60
56831;BME280;42713;42.676;23.352;2023-05-31T07:58:46;94945.09;;;22.19;56.94
56831;BME280;42713;42.676;23.352;2023-05-31T08:01:12;94945.91;;;22.29;56.67
56831;BME280;42713;42.676;23.352;2023-05-31T08:03:38;94943.25;;;22.37;57.35
56831;BME280;42713;42.676;23.352;2023-05-31T08:06:03;94935.75;;;22.48;57.04
56831;BME280;42713;42.676;23.352;2023-05-31T08:08:30;94939.97;;;22.58;57.15
56831;BME280;42713;42.676;23.352;2023-05-31T08:10:58;94932.00;;;22.67;55.70
56831;BME280;42713;42.676;23.352;2023-05-31T08:13:23;94929.00;;;22.77;54.97
56831;BME280;42713;42.676;23.352;2023-05-31T08:15:49;94934.66;;;22.84;55.23
56831;BME280;42713;42.676;23.352;2023-05-31T08:18:15;94916.28;;;22.92;54.69
56831;BME280;42713;42.676;23.352;2023-05-31T08:20:40;94928.84;;;23.00;55.23
56831;BME280;42713;42.676;23.352;2023-05-31T08:23:06;94925.50;;;23.03;55.43
56831;BME280;42713;42.676;23.352;2023-05-31T08:25:34;94927.84;;;23.13;54.81
56831;BME280;42713;42.676;23.352;2023-05-31T08:28:00;94928.97;;;23.21;54.16
56831;BME280;42713;42.676;23.352;2023-05-31T08:30:25;94925.22;;;23.22;53.37
56831;BME280;42713;42.676;23.352;2023-05-31T08:32:52;94917.47;;;23.29;53.79
56831;BME280;42713;42.676;23.352;2023-05-31T08:35:17;94914.00;;;23.38;53.68
56831;BME280;42713;42.676;23.352;2023-05-31T08:37:43;94907.69;;;23.42;53.57
56831;BME280;42713;42.676;23.352;2023-05-31T08:40:09;94916.03;;;23.50;53.01
56831;BME280;42713;42.676;23.352;2023-05-31T08:42:40;94909.25;;;23.52;53.64
56831;BME280;42713;42.676;23.352;2023-05-31T08:45:09;94912.81;;;23.56;52.38
56831;BME280;42713;42.676;23.352;2023-05-31T08:47:39;94915.34;;;23.61;51.73
56831;BME280;42713;42.676;23.352;2023-05-31T08:50:08;94900.53;;;23.64;51.01
56831;BME280;42713;42.676;23.352;2023-05-31T08:52:34;94898.47;;;23.70;51.09
56831;BME280;42713;42.676;23.352;2023-05-31T08:55:01;94906.31;;;23.75;50.65
56831;BME280;42713;42.676;23.352;2023-05-31T08:57:28;94897.00;;;23.81;51.04
56831;BME280;42713;42.676;23.352;2023-05-31T08:59:56;94895.19;;;23.94;51.88
56831;BME280;42713;42.676;23.352;2023-05-31T09:02:23;94894.25;;;23.99;50.20
56831;BME280;42713;42.676;23.352;2023-05-31T09:04:50;94895.84;;;24.00;49.81
56831;BME280;42713;42.676;23.352;2023-05-31T09:07:15;94890.16;;;24.01;49.40
56831;BME280;42713;42.676;23.352;2023-05-31T09:09:41;94882.91;;;24.02;49.75
56831;BME280;42713;42.676;23.352;2023-05-31T09:12:07;94884.66;;;23.98;49.32
56831;BME280;42713;42.676;23.352;2023-05-31T09:14:33;94879.97;;;23.95;50.11
56831;BME280;42713;42.676;23.352;2023-05-31T09:16:59;94882.34;;;23.87;49.87
56831;BME280;42713;42.676;23.352;2023-05-31T09:19:25;94876.38;;;23.82;50.43
56831;BME280;42713;42.676;23.352;2023-05-31T09:21:52;94883.50;;;23.77;51.10
56831;BME280;42713;42.676;23.352;2023-05-31T09:24:18;94880.56;;;23.70;51.37
56831;BME280;42713;42.676;23.352;2023-05-31T09:26:48;94876.16;;;23.66;51.09
56831;BME280;42713;42.676;23.352;2023-05-31T09:29:14;94879.34;;;23.59;51.18
56831;BME280;42713;42.676;23.352;2023-05-31T09:31:41;94882.66;;;23.56;50.54
56831;BME280;42713;42.676;23.352;2023-05-31T09:34:26;94868.53;;;23.46;49.59
56831;BME280;42713;42.676;23.352;2023-05-31T09:36:52;94871.97;;;23.47;49.20
56831;BME280;42713;42.676;23.352;2023-05-31T09:39:22;94874.22;;;23.45;50.09
56831;BME280;42713;42.676;23.352;2023-05-31T09:41:50;94870.59;;;23.41;50.42
56831;BME280;42713;42.676;23.352;2023-05-31T09:44:16;94873.59;;;23.39;50.77
56831;BME280;42713;42.676;23.352;2023-05-31T09:46:44;94874.69;;;23.38;51.70
56831;BME280;42713;42.676;23.352;2023-05-31T09:49:10;94874.41;;;23.31;52.31
56831;BME280;42713;42.676;23.352;2023-05-31T09:51:36;94873.97;;;23.20;53.02
56831;BME280;42713;42.676;23.352;2023-05-31T09:54:09;94870.66;;;23.14;53.61
56831;BME280;42713;42.676;23.352;2023-05-31T09:56:39;94873.03;;;23.07;53.92
56831;BME280;42713;42.676;23.352;2023-05-31T09:59:06;94871.31;;;23.03;55.05
56831;BME280;42713;42.676;23.352;2023-05-31T10:01:33;94860.16;;;23.00;56.09
56831;BME280;42713;42.676;23.352;2023-05-31T10:03:59;94858.91;;;23.07;56.62
56831;BME280;42713;42.676;23.352;2023-05-31T10:06:26;94850.56;;;23.08;55.73
56831;BME280;42713;42.676;23.352;2023-05-31T10:08:52;94845.22;;;23.08;55.71
56831;BME280;42713;42.676;23.352;2023-05-31T10:11:25;94853.19;;;23.17;55.61
56831;BME280;42713;42.676;23.352;2023-05-31T10:13:56;94844.41;;;23.25;55.86
56831;BME280;42713;42.676;23.352;2023-05-31T10:16:26;94845.66;;;23.28;54.65
56831;BME280;42713;42.676;23.352;2023-05-31T10:18:54;94854.75;;;23.36;54.32
56831;BME280;42713;42.676;23.352;2023-05-31T10:21:24;94845.91;;;23.44;56.61
56831;BME280;42713;42.676;23.352;2023-05-31T10:26:20;94850.91;;;23.54;54.73
56831;BME280;42713;42.676;23.352;2023-05-31T10:31:23;94847.88;;;23.65;55.40
56831;BME280;42713;42.676;23.352;2023-05-31T10:33:53;94835.22;;;23.74;53.43
56831;BME280;42713;42.676;23.352;2023-05-31T10:36:19;94832.09;;;23.72;50.95
56831;BME280;42713;42.676;23.352;2023-05-31T10:38:52;94842.81;;;23.63;51.03
56831;BME280;42713;42.676;23.352;2023-05-31T10:41:22;94840.00;;;23.59;51.48
56831;BME280;42713;42.676;23.352;2023-05-31T10:43:57;94848.38;;;23.49;52.59
56831;BME280;42713;42.676;23.352;2023-05-31T10:46:25;94844.16;;;23.48;53.69
56831;BME280;42713;42.676;23.352;2023-05-31T10:48:54;94841.16;;;23.50;52.46
56831;BME280;42713;42.676;23.352;2023-05-31T10:51:40;94840.88;;;23.42;51.23
56831;BME280;42713;42.676;23.352;2023-05-31T10:54:07;94839.50;;;23.36;51.51
56831;BME280;42713;42.676;23.352;2023-05-31T10:56:36;94834.63;;;23.29;51.60
56831;BME280;42713;42.676;23.352;2023-05-31T10:59:03;94841.88;;;23.29;52.26
56831;BME280;42713;42.676;23.352;2023-05-31T11:01:29;94838.88;;;23.30;53.59
56831;BME280;42713;42.676;23.352;2023-05-31T11:03:55;94832.09;;;23.33;53.84
56831;BME280;42713;42.676;23.352;2023-05-31T11:06:27;94830.38;;;23.37;54.33
56831;BME280;42713;42.676;23.352;2023-05-31T11:09:09;94834.41;;;23.43;54.96
56831;BME280;42713;42.676;23.352;2023-05-31T11:14:06;94824.94;;;23.55;54.73
56831;BME280;42713;42.676;23.352;2023-05-31T11:16:33;94820.03;;;23.66;54.98
56831;BME280;42713;42.676;23.352;2023-05-31T11:21:54;94822.66;;;23.96;53.33
56831;BME280;42713;42.676;23.352;2023-05-31T11:24:37;94818.66;;;24.32;52.93
56831;BME280;42713;42.676;23.352;2023-05-31T11:27:04;94810.13;;;24.72;50.16
56831;BME280;42713;42.676;23.352;2023-05-31T11:35:09;94801.41;;;25.83;45.69
56831;BME280;42713;42.676;23.352;2023-05-31T11:37:37;94797.88;;;26.07;45.03
56831;BME280;42713;42.676;23.352;2023-05-31T11:40:08;94794.38;;;26.32;44.73
56831;BME280;42713;42.676;23.352;2023-05-31T11:42:41;94798.63;;;26.33;44.92
56831;BME280;42713;42.676;23.352;2023-05-31T11:45:08;94813.38;;;26.26;47.33
56831;BME280;42713;42.676;23.352;2023-05-31T11:50:10;94792.06;;;26.05;51.68
56831;BME280;42713;42.676;23.352;2023-05-31T11:52:39;94794.34;;;25.78;51.60
56831;BME280;42713;42.676;23.352;2023-05-31T11:55:06;94808.91;;;25.53;52.49
56831;BME280;42713;42.676;23.352;2023-05-31T11:57:39;94808.75;;;25.24;53.61
56831;BME280;42713;42.676;23.352;2023-05-31T12:00:08;94802.94;;;24.97;54.12
56831;BME280;42713;42.676;23.352;2023-05-31T12:02:40;94807.31;;;24.68;55.26
56831;BME280;42713;42.676;23.352;2023-05-31T12:05:14;94807.66;;;24.46;57.60
56831;BME280;42713;42.676;23.352;2023-05-31T12:07:41;94812.47;;;24.19;57.56
56831;BME280;42713;42.676;23.352;2023-05-31T12:10:08;94810.56;;;23.89;57.85
56831;BME280;42713;42.676;23.352;2023-05-31T12:12:34;94813.22;;;23.68;58.89
56831;BME280;42713;42.676;23.352;2023-05-31T12:15:01;94820.09;;;23.48;60.56
56831;BME280;42713;42.676;23.352;2023-05-31T12:17:36;94808.56;;;23.26;60.77
56831;BME280;42713;42.676;23.352;2023-05-31T12:20:02;94806.53;;;23.14;61.86
56831;BME280;42713;42.676;23.352;2023-05-31T12:22:30;94802.19;;;23.01;61.51
56831;BME280;42713;42.676;23.352;2023-05-31T12:24:55;94795.94;;;22.88;60.88
56831;BME280;42713;42.676;23.352;2023-05-31T12:27:25;94799.88;;;22.73;62.83
56831;BME280;42713;42.676;23.352;2023-05-31T12:29:57;94801.66;;;22.60;62.94
56831;BME280;42713;42.676;23.352;2023-05-31T12:32:23;94793.66;;;22.51;64.76
56831;BME280;42713;42.676;23.352;2023-05-31T12:35:08;94796.34;;;22.43;62.63
56831;BME280;42713;42.676;23.352;2023-05-31T12:37:35;94789.75;;;22.40;63.29
56831;BME280;42713;42.676;23.352;2023-05-31T12:40:11;94783.28;;;22.32;62.40
56831;BME280;42713;42.676;23.352;2023-05-31T12:42:37;94780.16;;;22.30;62.92
56831;BME280;42713;42.676;23.352;2023-05-31T12:45:07;94783.28;;;22.32;63.00
56831;BME280;42713;42.676;23.352;2023-05-31T12:47:33;94772.16;;;22.30;63.22
56831;BME280;42713;42.676;23.352;2023-05-31T12:50:08;94770.56;;;22.29;63.77
56831;BME280;42713;42.676;23.352;2023-05-31T12:52:35;94771.53;;;22.24;65.98
56831;BME280;42713;42.676;23.352;2023-05-31T12:55:01;94769.66;;;22.25;66.62
56831;BME280;42713;42.676;23.352;2023-05-31T12:57:27;94776.84;;;22.24;66.25
56831;BME280;42713;42.676;23.352;2023-05-31T13:00:06;94779.06;;;22.22;64.91
56831;BME280;42713;42.676;23.352;2023-05-31T13:02:37;94771.53;;;22.16;65.65
56831;BME280;42713;42.676;23.352;2023-05-31T13:05:06;94777.50;;;22.13;67.28
56831;BME280;42713;42.676;23.352;2023-05-31T13:07:35;94768.69;;;21.95;68.62
56831;BME280;42713;42.676;23.352;2023-05-31T13:10:02;94791.16;;;22.02;67.61
56831;BME280;42713;42.676;23.352;2023-05-31T13:12:28;94774.69;;;21.91;67.75
56831;BME280;42713;42.676;23.352;2023-05-31T13:14:53;94793.34;;;21.91;67.19